createdAt,value
2022-11-26T00:02:27.335Z,101020.81
2022-11-26T00:04:55.999Z,101022.53
2022-11-26T00:07:28.696Z,101008.94
2022-11-26T00:09:57.938Z,101011.53
2022-11-26T00:12:28.451Z,101016.53
2022-11-26T00:14:55.508Z,101018.34
2022-11-26T00:17:23.442Z,101002.88
2022-11-26T00:19:50.418Z,101014.75
2022-11-26T00:22:23.348Z,101018.50
2022-11-26T00:24:51.007Z,101016.16
2022-11-26T00:27:18.485Z,101028.31
2022-11-26T00:29:45.501Z,101031.00
2022-11-26T00:32:18.081Z,101018.13
2022-11-26T00:34:45.150Z,101034.50
2022-11-26T00:37:26.370Z,101034.56
2022-11-26T00:39:54.451Z,101036.34
2022-11-26T00:42:21.508Z,101039.06
2022-11-26T00:44:48.641Z,101046.06
2022-11-26T00:47:18.513Z,101049.63
2022-11-26T00:49:45.516Z,101053.03
2022-11-26T00:52:32.571Z,101034.03
2022-11-26T00:54:59.797Z,101052.19
2022-11-26T00:57:26.702Z,101026.13
2022-11-26T00:59:53.668Z,101038.09
2022-11-26T01:02:20.553Z,101023.50
2022-11-26T01:04:47.444Z,101041.63
2022-11-26T01:07:14.321Z,101044.34
2022-11-26T01:09:44.497Z,101051.25
2022-11-26T01:12:15.148Z,101044.28
2022-11-26T01:14:42.033Z,101040.81
2022-11-26T01:17:12.189Z,101051.34
2022-11-26T01:19:39.117Z,101040.28
2022-11-26T01:22:06.092Z,101038.53
2022-11-26T01:24:33.018Z,101051.34
2022-11-26T01:26:59.882Z,101049.63
2022-11-26T01:29:26.777Z,101047.88
2022-11-26T01:31:53.698Z,101038.22
2022-11-26T01:34:20.635Z,101039.13
2022-11-26T01:36:47.506Z,101023.59
2022-11-26T01:39:20.970Z,101030.28
2022-11-26T01:42:19.169Z,101034.69
2022-11-26T01:44:46.055Z,101041.72
2022-11-26T01:47:28.595Z,101035.53
2022-11-26T01:50:32.143Z,101034.69
2022-11-26T01:53:01.811Z,101032.09
2022-11-26T01:55:36.995Z,101034.16
2022-11-26T01:58:07.742Z,101049.53
2022-11-26T02:00:34.594Z,101057.44
2022-11-26T02:03:02.555Z,101051.34
2022-11-26T02:05:34.796Z,101052.19
2022-11-26T02:08:03.203Z,101049.53
2022-11-26T02:10:30.152Z,101055.66
2022-11-26T02:12:57.103Z,101051.34
2022-11-26T02:15:28.649Z,101057.41
2022-11-26T02:18:01.433Z,101034.91
2022-11-26T02:20:46.422Z,101031.41
2022-11-26T02:23:19.281Z,101051.19
2022-11-26T02:26:20.096Z,101037.47
2022-11-26T02:29:05.463Z,101039.75
2022-11-26T02:32:03.087Z,101037.91
2022-11-26T02:34:55.830Z,101030.00
2022-11-26T02:37:31.603Z,101041.41
2022-11-26T02:39:58.689Z,101022.41
2022-11-26T02:42:29.938Z,101043.19
2022-11-26T02:44:59.187Z,101023.28
2022-11-26T02:47:28.056Z,101043.06
2022-11-26T02:49:57.570Z,101044.78
2022-11-26T02:52:25.570Z,101050.91
2022-11-26T02:54:54.929Z,101059.66
2022-11-26T02:57:25.663Z,101058.75
2022-11-26T02:59:52.816Z,101057.84
2022-11-26T03:02:47.869Z,101065.66
2022-11-26T03:05:18.068Z,101068.31
2022-11-26T03:07:51.138Z,101068.22
2022-11-26T03:10:20.506Z,101059.66
2022-11-26T03:12:47.740Z,101070.03
2022-11-26T03:15:14.547Z,101073.47
2022-11-26T03:17:41.397Z,101074.31
2022-11-26T03:20:09.064Z,101073.47
2022-11-26T03:22:36.080Z,101062.84
2022-11-26T03:25:03.812Z,101068.97
2022-11-26T03:27:30.718Z,101053.56
2022-11-26T03:29:57.621Z,101073.34
2022-11-26T03:32:24.490Z,101062.72
2022-11-26T03:34:51.473Z,101062.72
2022-11-26T03:37:18.972Z,101063.59
2022-11-26T03:39:45.805Z,101062.69
2022-11-26T03:42:12.673Z,101059.41
2022-11-26T03:44:39.838Z,101064.34
2022-11-26T03:47:06.947Z,101059.06
2022-11-26T03:49:33.841Z,101062.50
2022-11-26T03:52:00.639Z,101058.94
2022-11-26T03:54:27.589Z,101048.41
2022-11-26T03:56:54.404Z,101039.56
2022-11-26T03:59:21.201Z,101049.19
2022-11-26T04:01:48.164Z,101047.44
2022-11-26T04:04:15.064Z,101038.66
2022-11-26T04:06:41.923Z,101044.72
2022-11-26T04:09:08.825Z,101042.09
2022-11-26T04:11:35.698Z,101037.69
2022-11-26T04:14:02.706Z,101053.41
2022-11-26T04:16:29.639Z,101039.31
2022-11-26T04:18:56.569Z,101036.69
2022-11-26T04:21:23.420Z,101043.69
2022-11-26T04:23:50.336Z,101028.78
2022-11-26T04:26:17.125Z,101028.72
2022-11-26T04:28:44.608Z,101033.94
2022-11-26T04:31:11.613Z,101023.75
2022-11-26T04:33:38.500Z,101037.38
2022-11-26T04:36:05.748Z,101042.63
2022-11-26T04:38:32.591Z,101034.72
2022-11-26T04:40:59.493Z,101027.81
2022-11-26T04:43:26.323Z,101036.38
2022-11-26T04:45:53.204Z,101035.50
2022-11-26T04:48:20.127Z,101042.50
2022-11-26T04:50:47.075Z,101027.03
2022-11-26T04:53:13.896Z,101038.94
2022-11-26T04:55:40.863Z,101045.06
2022-11-26T04:58:07.708Z,101045.03
2022-11-26T05:00:34.537Z,101033.00
2022-11-26T05:03:01.410Z,101043.19
2022-11-26T05:05:28.264Z,101047.53
2022-11-26T05:07:55.231Z,101043.09
2022-11-26T05:10:22.119Z,101046.59
2022-11-26T05:12:48.984Z,101041.31
2022-11-26T05:15:15.968Z,101049.19
2022-11-26T05:17:42.827Z,101029.34
2022-11-26T05:20:10.218Z,101033.75
2022-11-26T05:22:37.088Z,101034.59
2022-11-26T05:25:04.266Z,101049.97
2022-11-26T05:27:31.171Z,101044.72
2022-11-26T05:29:57.969Z,101030.97
2022-11-26T05:32:24.781Z,101035.03
2022-11-26T05:34:54.493Z,101014.25
2022-11-26T05:37:25.520Z,101017.69
2022-11-26T05:39:52.322Z,101023.50
2022-11-26T05:42:19.135Z,101020.00
2022-11-26T05:44:45.966Z,101017.28
2022-11-26T05:47:12.761Z,101010.25
2022-11-26T05:49:39.532Z,101016.38
2022-11-26T05:52:06.396Z,101011.09
2022-11-26T05:54:33.202Z,101009.31
2022-11-26T05:57:00.507Z,101004.91
2022-11-26T05:59:28.232Z,100996.94
2022-11-26T06:01:55.138Z,101003.06
2022-11-26T06:04:22.215Z,100985.84
2022-11-26T06:06:49.055Z,100999.56
2022-11-26T06:09:15.915Z,100994.22
2022-11-26T06:11:42.842Z,100986.31
2022-11-26T06:14:10.750Z,100989.03
2022-11-26T06:16:38.139Z,100981.03
2022-11-26T06:19:05.095Z,100955.94
2022-11-26T06:21:31.918Z,100951.47
2022-11-26T06:23:59.711Z,100968.66
2022-11-26T06:26:26.831Z,100974.81
2022-11-26T06:28:53.637Z,100968.59
2022-11-26T06:31:20.901Z,100969.53
2022-11-26T06:33:48.047Z,100962.41
2022-11-26T06:36:14.900Z,100974.72
2022-11-26T06:38:41.729Z,100974.66
2022-11-26T06:41:09.066Z,100968.72
2022-11-26T06:43:36.071Z,100976.38
2022-11-26T06:46:08.469Z,100978.22
2022-11-26T06:48:36.436Z,100973.81
2022-11-26T06:51:05.573Z,100950.41
2022-11-26T06:53:33.905Z,100979.88
2022-11-26T06:56:05.334Z,100979.88
2022-11-26T06:58:33.152Z,100971.97
2022-11-26T07:01:00.122Z,100971.88
2022-11-26T07:03:30.611Z,100960.47
2022-11-26T07:06:00.180Z,100963.97
2022-11-26T07:08:27.184Z,100935.31
2022-11-26T07:10:54.262Z,100952.56
2022-11-26T07:13:21.254Z,100946.31
2022-11-26T07:15:48.232Z,100952.53
2022-11-26T07:18:15.078Z,100946.31
2022-11-26T07:20:41.915Z,100956.84
2022-11-26T07:23:08.767Z,100953.31
2022-11-26T07:25:37.070Z,100951.53
2022-11-26T07:28:04.315Z,100953.31
2022-11-26T07:30:31.218Z,100949.75
2022-11-26T07:32:58.712Z,100946.16
2022-11-26T07:35:25.596Z,100948.81
2022-11-26T07:37:52.585Z,100951.41
2022-11-26T07:40:19.945Z,100947.91
2022-11-26T07:42:51.866Z,100948.69
2022-11-26T07:45:20.029Z,100940.75
2022-11-26T07:47:46.967Z,100926.19
2022-11-26T07:50:14.043Z,100945.13
2022-11-26T07:52:40.964Z,100937.22
2022-11-26T07:55:12.332Z,100939.84
2022-11-26T07:57:39.529Z,100938.09
2022-11-26T08:00:07.215Z,100919.16
2022-11-26T08:02:34.149Z,100933.63
2022-11-26T08:05:01.151Z,100927.44
2022-11-26T08:07:29.585Z,100930.09
2022-11-26T08:09:57.104Z,100940.63
2022-11-26T08:12:24.085Z,100945.88
2022-11-26T08:14:50.986Z,100927.44
2022-11-26T08:17:17.906Z,100930.09
2022-11-26T08:19:44.899Z,100919.50
2022-11-26T08:22:11.806Z,100922.97
2022-11-26T08:24:40.427Z,100922.91
2022-11-26T08:27:07.550Z,100920.28
2022-11-26T08:29:36.823Z,100922.81
2022-11-26T08:32:04.678Z,100917.56
2022-11-26T08:34:31.560Z,100912.28
2022-11-26T08:36:58.386Z,100917.56
2022-11-26T08:39:25.346Z,100918.50
2022-11-26T08:41:52.935Z,100918.41
2022-11-26T08:44:20.190Z,100914.88
2022-11-26T08:46:47.459Z,100919.28
2022-11-26T08:49:15.342Z,100920.97
2022-11-26T08:51:42.552Z,100902.94
2022-11-26T08:54:10.598Z,100920.13
2022-11-26T08:56:37.658Z,100924.41
2022-11-26T08:59:04.787Z,100920.06
2022-11-26T09:01:33.895Z,100920.06
2022-11-26T09:04:03.022Z,100924.41
2022-11-26T09:06:31.677Z,100924.41
2022-11-26T09:09:15.739Z,100912.41
2022-11-26T09:11:45.753Z,100915.56
2022-11-26T09:14:14.535Z,100922.56
2022-11-26T09:16:41.727Z,100919.94
2022-11-26T09:19:09.294Z,100912.94
2022-11-26T09:21:36.616Z,100919.00
2022-11-26T09:24:04.295Z,100919.00
2022-11-26T09:26:34.769Z,100922.56
2022-11-26T09:29:02.873Z,100912.88
2022-11-26T09:31:30.548Z,100906.75
2022-11-26T09:34:00.464Z,100905.81
2022-11-26T09:36:27.904Z,100907.50
2022-11-26T09:38:59.035Z,100905.75
2022-11-26T09:41:44.465Z,100899.59
2022-11-26T09:44:17.487Z,100899.59
2022-11-26T09:47:12.406Z,100896.97
2022-11-26T09:50:00.469Z,100875.34
2022-11-26T09:52:34.143Z,100879.72
2022-11-26T09:55:21.268Z,100885.50
2022-11-26T09:58:11.601Z,100888.06
2022-11-26T10:00:50.401Z,100893.34
2022-11-26T10:03:30.339Z,100879.28
2022-11-26T10:06:15.745Z,100879.28
2022-11-26T10:09:06.477Z,100877.50
2022-11-26T10:12:00.524Z,100878.38
2022-11-26T10:14:39.392Z,100876.66
2022-11-26T10:17:29.965Z,100878.38
2022-11-26T10:20:27.837Z,100855.00
2022-11-26T10:22:59.557Z,100870.38
2022-11-26T10:25:33.870Z,100867.81
2022-11-26T10:28:03.277Z,100859.00
2022-11-26T10:30:31.189Z,100858.13
2022-11-26T10:33:02.813Z,100853.72
2022-11-26T10:35:29.948Z,100845.81
2022-11-26T10:37:58.014Z,100846.72
2022-11-26T10:40:28.462Z,100854.53
2022-11-26T10:43:12.993Z,100829.47
2022-11-26T10:45:55.032Z,100840.44
2022-11-26T10:48:33.355Z,100844.84
2022-11-26T10:51:26.687Z,100837.88
2022-11-26T10:53:58.952Z,100831.16
2022-11-26T10:56:36.183Z,100851.84
2022-11-26T10:59:06.341Z,100839.59
2022-11-26T11:01:37.360Z,100839.53
2022-11-26T11:04:22.364Z,100838.66
2022-11-26T11:06:49.380Z,100824.91
2022-11-26T11:09:24.956Z,100832.47
2022-11-26T11:12:19.584Z,100809.94
2022-11-26T11:14:47.687Z,100839.44
2022-11-26T11:17:36.237Z,100817.06
2022-11-26T11:20:15.280Z,100827.19
2022-11-26T11:22:46.259Z,100827.19
2022-11-26T11:25:24.843Z,100809.06
2022-11-26T11:27:52.378Z,100816.66
2022-11-26T11:30:33.032Z,100809.50
2022-11-26T11:33:24.961Z,100810.44
2022-11-26T11:36:15.249Z,100805.16
2022-11-26T11:38:52.648Z,100805.09
2022-11-26T11:41:27.323Z,100799.88
2022-11-26T11:44:00.386Z,100798.97
2022-11-26T11:46:44.651Z,100780.91
2022-11-26T11:49:21.150Z,100796.31
2022-11-26T11:52:16.326Z,100782.19
2022-11-26T11:54:57.901Z,100779.56
2022-11-26T11:57:45.936Z,100779.56
2022-11-26T12:00:18.176Z,100755.31
2022-11-26T12:03:18.932Z,100776.91
2022-11-26T12:06:00.554Z,100748.22
2022-11-26T12:09:01.385Z,100744.78
2022-11-26T12:11:46.834Z,100753.13
2022-11-26T12:14:39.147Z,100760.16
2022-11-26T12:17:14.481Z,100756.66
2022-11-26T12:19:54.526Z,100743.47
2022-11-26T12:22:28.790Z,100734.66
2022-11-26T12:25:19.493Z,100734.66
2022-11-26T12:28:18.110Z,100715.47
2022-11-26T12:30:54.287Z,100705.41
2022-11-26T12:33:34.699Z,100702.75
2022-11-26T12:36:20.604Z,100707.91
2022-11-26T12:38:57.855Z,100708.81
2022-11-26T12:41:59.274Z,100697.34
2022-11-26T12:44:38.087Z,100696.44
2022-11-26T12:47:10.859Z,100697.25
2022-11-26T12:50:11.559Z,100670.47
2022-11-26T12:52:47.539Z,100682.28
2022-11-26T12:55:42.001Z,100666.75
2022-11-26T12:58:33.082Z,100669.84
2022-11-26T13:01:00.227Z,100666.19
2022-11-26T13:03:33.930Z,100652.91
2022-11-26T13:06:24.738Z,100646.72
2022-11-26T13:09:03.451Z,100632.66
2022-11-26T13:11:54.461Z,100626.47
2022-11-26T13:14:40.565Z,100626.53
2022-11-26T13:17:19.615Z,100611.53
2022-11-26T13:19:52.086Z,100608.06
2022-11-26T13:22:40.007Z,100607.13
2022-11-26T13:25:34.487Z,100594.03
2022-11-26T13:28:23.635Z,100587.31
2022-11-26T13:30:56.403Z,100584.31
2022-11-26T13:33:44.396Z,100589.59
2022-11-26T13:36:21.034Z,100592.22
2022-11-26T13:39:06.794Z,100581.66
2022-11-26T13:41:42.577Z,100567.97
2022-11-26T13:44:31.538Z,100563.66
2022-11-26T13:47:07.776Z,100580.75
2022-11-26T13:49:47.852Z,100548.69
2022-11-26T13:52:42.093Z,100570.19
2022-11-26T13:55:21.552Z,100561.41
2022-11-26T13:57:55.233Z,100558.78
2022-11-26T14:00:33.685Z,100566.78
2022-11-26T14:03:03.239Z,100555.22
2022-11-26T14:05:50.313Z,100550.09
2022-11-26T14:08:37.397Z,100546.81
2022-11-26T14:11:04.959Z,100544.81
2022-11-26T14:13:32.250Z,100551.81
2022-11-26T14:16:02.683Z,100544.72
2022-11-26T14:18:52.207Z,100530.72
2022-11-26T14:21:22.485Z,100536.81
2022-11-26T14:23:54.527Z,100530.72
2022-11-26T14:26:39.726Z,100528.06
2022-11-26T14:29:10.313Z,100505.63
2022-11-26T14:31:42.540Z,100518.34
2022-11-26T14:34:34.029Z,100509.59
2022-11-26T14:37:01.403Z,100482.75
2022-11-26T14:39:29.655Z,100495.47
2022-11-26T14:42:04.084Z,100498.47
2022-11-26T14:44:34.925Z,100494.53
2022-11-26T14:47:12.036Z,100489.25
2022-11-26T14:49:40.536Z,100492.75
2022-11-26T14:52:21.261Z,100494.53
2022-11-26T14:54:53.031Z,100498.94
2022-11-26T14:57:26.259Z,100479.09
2022-11-26T15:00:05.902Z,100493.78
2022-11-26T15:02:33.224Z,100492.06
2022-11-26T15:05:13.529Z,100468.69
2022-11-26T15:07:41.045Z,100474.44
2022-11-26T15:10:19.879Z,100479.63
2022-11-26T15:12:49.381Z,100469.94
2022-11-26T15:15:22.173Z,100458.13
2022-11-26T15:17:56.476Z,100473.50
2022-11-26T15:20:25.585Z,100484.03
2022-11-26T15:22:56.511Z,100484.13
2022-11-26T15:25:46.156Z,100477.94
2022-11-26T15:28:21.967Z,100464.28
2022-11-26T15:31:10.651Z,100471.81
2022-11-26T15:33:39.669Z,100478.88
2022-11-26T15:36:14.274Z,100475.47
2022-11-26T15:39:06.880Z,100479.78
2022-11-26T15:41:42.841Z,100478.00
2022-11-26T15:44:27.899Z,100477.16
2022-11-26T15:46:57.360Z,100466.59
2022-11-26T15:49:40.687Z,100454.34
2022-11-26T15:52:13.285Z,100449.47
2022-11-26T15:55:10.831Z,100458.84
2022-11-26T15:57:41.628Z,100464.97
2022-11-26T16:00:25.853Z,100458.84
2022-11-26T16:02:53.082Z,100464.97
2022-11-26T16:05:39.921Z,100452.31
2022-11-26T16:08:30.692Z,100461.00
2022-11-26T16:11:08.887Z,100478.22
2022-11-26T16:13:36.594Z,100447.03
2022-11-26T16:16:23.012Z,100465.94
2022-11-26T16:19:01.355Z,100457.19
2022-11-26T16:21:33.743Z,100459.00
2022-11-26T16:24:08.365Z,100443.16
2022-11-26T16:26:58.655Z,100434.41
2022-11-26T16:29:26.791Z,100437.03
2022-11-26T16:31:53.853Z,100440.59
2022-11-26T16:34:21.340Z,100423.91
2022-11-26T16:36:48.949Z,100415.94
2022-11-26T16:39:17.407Z,100407.16
2022-11-26T16:41:44.475Z,100411.50
2022-11-26T16:44:11.762Z,100402.63
2022-11-26T16:46:39.324Z,100416.78
2022-11-26T16:49:06.352Z,100402.34
2022-11-26T16:51:33.771Z,100408.88
2022-11-26T16:54:00.703Z,100404.50
2022-11-26T16:56:41.194Z,100400.16
2022-11-26T16:59:19.690Z,100404.63
2022-11-26T17:01:47.005Z,100384.00
2022-11-26T17:04:14.929Z,100394.06
2022-11-26T17:06:42.467Z,100388.78
2022-11-26T17:09:18.002Z,100377.38
2022-11-26T17:11:45.505Z,100385.28
2022-11-26T17:14:12.978Z,100370.56
2022-11-26T17:16:41.292Z,100374.81
2022-11-26T17:19:14.192Z,100368.59
2022-11-26T17:21:41.324Z,100368.59
2022-11-26T17:24:08.724Z,100371.31
2022-11-26T17:26:36.278Z,100366.03
2022-11-26T17:29:03.674Z,100345.72
2022-11-26T17:31:31.093Z,100345.78
2022-11-26T17:33:58.465Z,100326.06
2022-11-26T17:36:30.653Z,100339.66
2022-11-26T17:38:59.730Z,100340.50
2022-11-26T17:41:26.894Z,100329.97
2022-11-26T17:43:53.998Z,100325.72
2022-11-26T17:46:23.275Z,100315.91
2022-11-26T17:48:56.899Z,100323.00
2022-11-26T17:51:28.019Z,100303.31
2022-11-26T17:53:56.789Z,100315.16
2022-11-26T17:56:27.251Z,100320.44
2022-11-26T17:58:56.143Z,100309.88
2022-11-26T18:01:23.494Z,100315.16
2022-11-26T18:03:52.841Z,100308.19
2022-11-26T18:07:04.590Z,100304.59
2022-11-26T18:09:31.935Z,100294.06
2022-11-26T18:12:05.615Z,100292.38
2022-11-26T18:14:36.358Z,100280.97
2022-11-26T18:17:05.516Z,100288.03
2022-11-26T18:19:34.223Z,100305.56
2022-11-26T18:22:03.538Z,100289.75
2022-11-26T18:24:32.405Z,100293.28
2022-11-26T18:27:00.105Z,100291.59
2022-11-26T18:29:28.742Z,100285.38
2022-11-26T18:31:56.281Z,100273.13
2022-11-26T18:34:28.098Z,100267.84
2022-11-26T18:36:55.519Z,100257.28
2022-11-26T18:39:23.898Z,100255.63
2022-11-26T18:41:51.273Z,100252.88
2022-11-26T18:44:19.629Z,100234.53
2022-11-26T18:46:46.688Z,100218.69
2022-11-26T18:49:14.497Z,100202.88
2022-11-26T18:51:42.381Z,100208.16
2022-11-26T18:54:10.543Z,100200.22
2022-11-26T18:56:41.838Z,100176.09
2022-11-26T18:59:14.470Z,100176.50
2022-11-26T19:01:44.154Z,100167.72
2022-11-26T19:04:13.120Z,100152.75
2022-11-26T19:06:42.445Z,100141.47
2022-11-26T19:09:17.479Z,100145.88
2022-11-26T19:11:45.808Z,100152.81
2022-11-26T19:14:14.398Z,100122.03
2022-11-26T19:16:45.060Z,100106.75
2022-11-26T19:19:14.063Z,100130.91
2022-11-26T19:21:43.460Z,100119.50
2022-11-26T19:24:12.425Z,100119.41
2022-11-26T19:26:42.676Z,100112.44
2022-11-26T19:29:12.850Z,100125.63
2022-11-26T19:31:42.446Z,100101.56
2022-11-26T19:34:17.025Z,100103.16
2022-11-26T19:36:48.842Z,100077.84
2022-11-26T19:39:17.378Z,100100.09
2022-11-26T19:41:44.942Z,100110.72
2022-11-26T19:44:13.574Z,100123.50
2022-11-26T19:46:42.306Z,100113.88
2022-11-26T19:49:13.207Z,100114.22
2022-11-26T19:51:40.951Z,100107.16
2022-11-26T19:54:08.572Z,100070.03
2022-11-26T19:56:37.849Z,100080.00
2022-11-26T19:59:06.657Z,100049.69
2022-11-26T20:01:34.932Z,100046.69
2022-11-26T20:04:05.453Z,100045.72
2022-11-26T20:06:34.817Z,100037.06
2022-11-26T20:09:04.725Z,100029.06
2022-11-26T20:11:33.383Z,99993.56
2022-11-26T20:14:01.115Z,100004.50
2022-11-26T20:16:30.671Z,100004.50
2022-11-26T20:18:59.274Z,99991.38
2022-11-26T20:21:29.552Z,99994.50
2022-11-26T20:24:01.091Z,100012.47
2022-11-26T20:26:32.413Z,99986.97
2022-11-26T20:29:08.558Z,99979.97
2022-11-26T20:31:39.888Z,99966.41
2022-11-26T20:34:06.982Z,99976.59
2022-11-26T20:36:34.485Z,99978.31
2022-11-26T20:39:03.045Z,99967.75
2022-11-26T20:41:35.683Z,99962.47
2022-11-26T20:44:05.987Z,99932.72
2022-11-26T20:46:33.520Z,99947.59
2022-11-26T20:49:01.008Z,99930.09
2022-11-26T20:51:28.497Z,99891.09
2022-11-26T20:53:59.537Z,99901.09
2022-11-26T20:56:27.851Z,99879.16
2022-11-26T20:58:55.188Z,99882.63
2022-11-26T21:01:24.253Z,99877.38
2022-11-26T21:03:55.981Z,99879.16
2022-11-26T21:06:29.750Z,99893.19
2022-11-26T21:09:02.241Z,99882.63
2022-11-26T21:11:30.616Z,99869.44
2022-11-26T21:13:59.556Z,99871.31
2022-11-26T21:16:29.659Z,99865.00
2022-11-26T21:19:00.208Z,99859.72
2022-11-26T21:21:29.320Z,99840.91
2022-11-26T21:23:58.079Z,99858.91
2022-11-26T21:26:27.288Z,99841.94
2022-11-26T21:28:57.080Z,99856.28
2022-11-26T21:31:26.253Z,99850.22
2022-11-26T21:34:01.629Z,99851.06
2022-11-26T21:36:31.424Z,99837.88
2022-11-26T21:39:00.507Z,99818.56
2022-11-26T21:41:29.058Z,99782.25
2022-11-26T21:43:57.682Z,99771.13
2022-11-26T21:46:27.195Z,99784.41
2022-11-26T21:48:55.430Z,99794.97
2022-11-26T21:51:25.220Z,99808.13
2022-11-26T21:53:54.765Z,99803.91
2022-11-26T21:56:30.647Z,99791.47
2022-11-26T21:58:59.910Z,99793.25
2022-11-26T22:01:30.490Z,99792.41
2022-11-26T22:04:01.905Z,99778.28
2022-11-26T22:06:30.420Z,99751.19
2022-11-26T22:08:57.912Z,99728.31
2022-11-26T22:11:27.627Z,99734.41
2022-11-26T22:13:55.569Z,99747.56
2022-11-26T22:16:24.606Z,99751.19
2022-11-26T22:18:52.995Z,99738.00
2022-11-26T22:21:21.884Z,99733.56
2022-11-26T22:23:50.374Z,99728.38
2022-11-26T22:26:18.810Z,99732.72
2022-11-26T22:28:46.622Z,99715.19
2022-11-26T22:31:34.030Z,99705.50
2022-11-26T22:34:04.314Z,99702.03
2022-11-26T22:36:31.671Z,99701.09
2022-11-26T22:39:02.945Z,99691.13
2022-11-26T22:41:30.557Z,99710.88
2022-11-26T22:44:00.089Z,99699.38
2022-11-26T22:46:27.721Z,99701.09
2022-11-26T22:49:00.110Z,99717.75
2022-11-26T22:51:31.444Z,99702.97
2022-11-26T22:54:04.085Z,99692.44
2022-11-26T22:56:32.448Z,99688.84
2022-11-26T22:59:01.723Z,99696.84
2022-11-26T23:01:31.980Z,99675.31
2022-11-26T23:04:00.782Z,99683.56
2022-11-26T23:06:30.677Z,99688.84
2022-11-26T23:08:58.966Z,99674.91
2022-11-26T23:11:32.046Z,99670.38
2022-11-26T23:13:59.754Z,99662.47
2022-11-26T23:16:27.538Z,99651.06
2022-11-26T23:18:56.540Z,99657.31
2022-11-26T23:21:35.414Z,99666.91
2022-11-26T23:24:02.599Z,99662.47
2022-11-26T23:26:32.369Z,99659.84
2022-11-26T23:29:01.521Z,99652.78
2022-11-26T23:31:31.841Z,99644.13
2022-11-26T23:33:59.640Z,99637.66
2022-11-26T23:36:27.949Z,99631.81
2022-11-26T23:38:56.086Z,99622.78
2022-11-26T23:41:23.411Z,99612.22
2022-11-26T23:43:50.448Z,99606.97
2022-11-26T23:46:22.835Z,99606.38
2022-11-26T23:48:50.210Z,99614.28
2022-11-26T23:51:22.707Z,99599.81
2022-11-26T23:53:51.140Z,99606.38
2022-11-26T23:56:21.306Z,99596.69
2022-11-26T23:58:50.046Z,99582.31
